Dati Storici

Data ora Umidita' aria (%) Temperatura aria (°C) Rad globale (W/m²) Gonioanemometro (°) Tacoanemometro (m/s) Pioggia (mm)
28-10-2012 01:30 96.1 % 13.746 1.784 90.2 0.488 0
28-10-2012 01:20 95.8 % 13.744 2.091 175.966 0.241 0
28-10-2012 01:10 95.9 % 13.862 1.925 232.971 -0.016 0
28-10-2012 01:00 96 % 14.047 2.874 332.009 1.289 0
28-10-2012 00:50 95.9 % 14.047 2.81 278.041 0.38 0
28-10-2012 00:40 95.8 % 14.085 2.836 206.271 0.751 0
28-10-2012 00:30 95.7 % 14.211 3.105 273.994 1.104 0
28-10-2012 00:20 95.6 % 14.331 3.233 245.739 1.061 0
28-10-2012 00:10 95.7 % 14.416 3.169 233.878 0.512 0
28-10-2012 00:00 95.8 % 14.44 3.246 276.985 0.337 0
27-10-2012 23:50 95.9 % 14.403 3.105 218.364 1.285 0
27-10-2012 23:40 96.1 % 14.417 3.143 224.995 0.799 0
27-10-2012 23:30 96.2 % 14.371 3.066 194.803 1.127 0
27-10-2012 23:20 96.2 % 14.296 3.054 148.56 0.557 0
27-10-2012 23:10 95.9 % 14.189 2.207 204.205 0.557 0
27-10-2012 23:00 95.7 % 14.294 1.848 230.875 0.368 0
27-10-2012 22:50 95.7 % 14.426 2.143 193.134 1.253 0
27-10-2012 22:40 95.8 % 14.534 2.9 197.386 0.551 0
27-10-2012 22:30 95.8 % 14.562 2.605 176.119 1.289 0
27-10-2012 22:20 95.8 % 14.612 2.605 265.739 0.669 0

I dati sono presentati in modo automatico a scopo informativo. In seguito a verifica i dati possono subire modifiche o essere invalidati e non riportati negli archivi definitivi.